»·PEaware :: EZY74V KRNO-KSNA

EZY74V :: KRNO-KSNA

FLIGHT INFORMATION

Flight Status: Arrived
Operator:
EasyJet
More flights by this operator :: More flights under this callsign
Pilot: Andrew N. (12823)
Aircraft: AIRBUS A320
(A320)
More flights by this aircraft type
Origin: KRNO Reno/Tahoe Intl
United States
Destination: KSNA John Wayne-Orange Co
United States
More flights between these airports :: More routes between these airports
Route: +PVINE3 CRDDZ FRA J7 REBRG OHSEA1
File this flight plan on PilotEdge
Remarks:
Altitude:
(Current/Filed)
37,000ft
Speed:
(Current/Filed)
465kts
Departed: 10-Oct-18 01:25 PM
Arrived: 10-Oct-18 02:35 PM
Distance/Time
Traveled:
362nm/1:10
Distance/Time
To Go:
Arrived

Flight Plot

Page will automatically refresh every two minutes.

Flight plan parsing failed; only flown route is shown


Map Options




Map Legend


Flown Route
Filed Route
Departure Airport
Arrival Airport
Navaid (VOR, NDB)
Fix

Horizontal Profiles

Position Reports

Time Latitude Longitude Heading Altitude Ground
Speed
10-Oct-18 12:57 39.507412 -119.773134 180 4417ft 0kts
10-Oct-18 12:58 39.507412 -119.773134 180 4417ft 0kts
10-Oct-18 12:59 39.507412 -119.773134 180 4417ft 0kts
10-Oct-18 13:00 39.507412 -119.773134 180 4417ft 0kts
10-Oct-18 13:01 39.507663 -119.773130 180 4417ft 1kts
10-Oct-18 13:02 39.508006 -119.773404 106 4418ft 2kts
10-Oct-18 13:03 39.508020 -119.773587 89 4418ft 0kts
10-Oct-18 13:04 39.508020 -119.773587 89 4418ft 0kts
10-Oct-18 13:05 39.508020 -119.773587 89 4418ft 0kts
10-Oct-18 13:06 39.508020 -119.773587 89 4418ft 0kts
10-Oct-18 13:07 39.508020 -119.773587 89 4418ft 0kts
10-Oct-18 13:08 39.508020 -119.773587 89 4418ft 0kts
10-Oct-18 13:09 39.508020 -119.773587 89 4418ft 0kts
10-Oct-18 13:10 39.508020 -119.773587 89 4418ft 0kts
10-Oct-18 13:11 39.508020 -119.773587 89 4418ft 0kts
10-Oct-18 13:12 39.508020 -119.773587 89 4418ft 0kts
10-Oct-18 13:13 39.508020 -119.773587 89 4418ft 0kts
10-Oct-18 13:14 39.508020 -119.773587 89 4418ft 0kts
10-Oct-18 13:15 39.508020 -119.773587 89 4418ft 0kts
10-Oct-18 13:16 39.508020 -119.773587 89 4418ft 0kts
10-Oct-18 13:17 39.508020 -119.773587 89 4418ft 0kts
10-Oct-18 13:18 39.508027 -119.772290 90 4417ft 8kts
10-Oct-18 13:19 39.508027 -119.772016 90 4416ft 1kts
10-Oct-18 13:20 39.505965 -119.771496 179 4414ft 16kts
10-Oct-18 13:21 39.500980 -119.771498 179 4412ft 17kts
10-Oct-18 13:22 39.496584 -119.771508 179 4412ft 14kts
10-Oct-18 13:23 39.492840 -119.771525 179 4412ft 14kts
10-Oct-18 13:24 39.486617 -119.771521 179 4415ft 25kts
10-Oct-18 13:25 39.483763 -119.770611 89 4421ft 0kts
10-Oct-18 13:26 39.483800 -119.769736 73 4421ft 11kts
10-Oct-18 13:27 39.508015 -119.769220 0 4491ft 191kts
10-Oct-18 13:28 39.560269 -119.769962 1 7058ft 219kts
10-Oct-18 13:29 39.616949 -119.812098 298 9028ft 292kts
10-Oct-18 13:30 39.605212 -119.912274 223 11252ft 344kts
10-Oct-18 13:31 39.512906 -119.928661 172 13622ft 368kts
10-Oct-18 13:32 39.412338 -119.913382 173 16042ft 378kts
10-Oct-18 13:33 39.307304 -119.898342 174 17964ft 397kts
10-Oct-18 13:34 39.178843 -119.880134 176 20498ft 403kts
10-Oct-18 13:35 39.087492 -119.867242 176 22234ft 403kts
10-Oct-18 13:36 38.977033 -119.851704 175 24121ft 404kts
10-Oct-18 13:37 38.865935 -119.836153 174 25474ft 414kts
10-Oct-18 13:38 38.756632 -119.820876 175 26788ft 421kts
10-Oct-18 13:39 38.641432 -119.804828 175 27972ft 430kts
10-Oct-18 13:40 38.525994 -119.788796 174 29022ft 439kts
10-Oct-18 13:41 38.404101 -119.771921 174 30021ft 447kts
10-Oct-18 13:42 38.280976 -119.754932 174 30982ft 452kts
10-Oct-18 13:43 38.156492 -119.737802 175 32112ft 451kts
10-Oct-18 13:44 38.033135 -119.720891 175 33223ft 447kts
10-Oct-18 13:45 37.910418 -119.704135 175 34232ft 445kts
10-Oct-18 13:46 37.792440 -119.688079 175 35170ft 442kts
10-Oct-18 13:47 37.671651 -119.671694 175 36038ft 439kts
10-Oct-18 13:48 37.551612 -119.655469 176 36768ft 438kts
10-Oct-18 13:49 37.434019 -119.639623 176 37374ft 437kts
10-Oct-18 13:50 37.315510 -119.623701 176 37905ft 437kts
10-Oct-18 13:51 37.198582 -119.608044 176 38336ft 438kts
10-Oct-18 13:52 37.078358 -119.595883 183 38728ft 435kts
10-Oct-18 13:53 36.957593 -119.598047 183 38850ft 440kts
10-Oct-18 13:54 36.843898 -119.600014 183 38850ft 445kts
10-Oct-18 13:55 36.724604 -119.602062 183 38849ft 446kts
10-Oct-18 13:56 36.604002 -119.604132 183 38846ft 446kts
10-Oct-18 13:57 36.488271 -119.606118 183 38846ft 446kts
10-Oct-18 13:58 36.364823 -119.608230 183 38876ft 446kts
10-Oct-18 13:59 36.242212 -119.610319 183 38873ft 446kts
10-Oct-18 14:00 36.119912 -119.612395 183 38872ft 446kts
10-Oct-18 14:01 35.998135 -119.614590 185 38873ft 445kts
10-Oct-18 14:02 35.879248 -119.635598 191 38877ft 443kts
10-Oct-18 14:03 35.763792 -119.659065 191 38877ft 443kts
10-Oct-18 14:04 35.641706 -119.666413 169 38844ft 456kts
10-Oct-18 14:05 35.524232 -119.606481 158 38762ft 466kts
10-Oct-18 14:06 35.410639 -119.543652 158 38784ft 446kts
10-Oct-18 14:07 35.297281 -119.481409 158 38824ft 457kts
10-Oct-18 14:08 35.181063 -119.417736 158 38791ft 468kts
10-Oct-18 14:09 35.064287 -119.353903 157 37846ft 465kts
10-Oct-18 14:10 34.956483 -119.295176 158 36971ft 459kts
10-Oct-18 14:11 34.849458 -119.237050 158 35119ft 458kts
10-Oct-18 14:12 34.724670 -119.168403 154 32296ft 464kts
10-Oct-18 14:13 34.630771 -119.108678 153 30083ft 466kts
10-Oct-18 14:14 34.523261 -119.039830 153 27948ft 456kts
10-Oct-18 14:15 34.418210 -118.971431 152 26347ft 434kts
10-Oct-18 14:16 34.316704 -118.903900 152 24312ft 424kts
10-Oct-18 14:17 34.215804 -118.840654 162 22314ft 412kts
10-Oct-18 14:18 34.109619 -118.798602 163 20316ft 400kts
10-Oct-18 14:19 34.005980 -118.758142 163 18314ft 390kts
10-Oct-18 14:20 33.905405 -118.719266 163 16456ft 377kts
10-Oct-18 14:21 33.808296 -118.681817 163 14338ft 373kts
10-Oct-18 14:22 33.711317 -118.645299 164 12376ft 363kts
10-Oct-18 14:23 33.601928 -118.603914 147 10464ft 346kts
10-Oct-18 14:24 33.558134 -118.534072 123 9907ft 313kts
10-Oct-18 14:25 33.520992 -118.447056 92 8737ft 297kts
10-Oct-18 14:26 33.518667 -118.350032 90 7321ft 291kts
10-Oct-18 14:27 33.538909 -118.267468 67 6475ft 267kts
10-Oct-18 14:28 33.564712 -118.186923 67 5329ft 260kts
10-Oct-18 14:29 33.603669 -118.113240 54 5011ft 266kts
10-Oct-18 14:30 33.643081 -118.042379 54 5032ft 247kts
10-Oct-18 14:31 33.677114 -117.981172 55 4901ft 214kts
10-Oct-18 14:32 33.715493 -117.933451 26 4622ft 213kts
10-Oct-18 14:33 33.763485 -117.901969 49 3253ft 188kts
10-Oct-18 14:34 33.751991 -117.849096 116 2066ft 158kts
10-Oct-18 14:35 33.721383 -117.840133 208 1149ft 145kts
10-Oct-18 14:36 33.686415 -117.862104 207 208ft 143kts
10-Oct-18 14:37 33.667840 -117.873407 144 65ft 19kts

Navigation Log

Ident Type
Flight plan parsing failed, navigation log unavailable